sensor_id;sensor_type;location;lat;lon;timestamp;P1;durP1;ratioP1;P2;durP2;ratioP2
5900;SDS011;2976;49.764;9.796;2023-08-08T00:01:42;1.70;;;1.53;;
5900;SDS011;2976;49.764;9.796;2023-08-08T00:04:08;1.87;;;1.43;;
5900;SDS011;2976;49.764;9.796;2023-08-08T00:06:35;3.60;;;1.60;;
5900;SDS011;2976;49.764;9.796;2023-08-08T00:09:00;2.33;;;1.93;;
5900;SDS011;2976;49.764;9.796;2023-08-08T00:11:26;1.93;;;1.70;;
5900;SDS011;2976;49.764;9.796;2023-08-08T00:13:52;1.67;;;1.57;;
5900;SDS011;2976;49.764;9.796;2023-08-08T00:16:17;1.30;;;1.30;;
5900;SDS011;2976;49.764;9.796;2023-08-08T00:18:43;2.37;;;1.70;;
5900;SDS011;2976;49.764;9.796;2023-08-08T00:21:09;1.30;;;1.30;;
5900;SDS011;2976;49.764;9.796;2023-08-08T00:23:34;2.03;;;1.90;;
5900;SDS011;2976;49.764;9.796;2023-08-08T00:26:00;2.03;;;1.83;;
5900;SDS011;2976;49.764;9.796;2023-08-08T00:28:25;10.03;;;1.80;;
5900;SDS011;2976;49.764;9.796;2023-08-08T00:30:51;3.17;;;1.73;;
5900;SDS011;2976;49.764;9.796;2023-08-08T00:33:16;2.63;;;1.50;;
5900;SDS011;2976;49.764;9.796;2023-08-08T00:35:42;1.90;;;1.43;;
5900;SDS011;2976;49.764;9.796;2023-08-08T00:38:09;3.13;;;1.83;;
5900;SDS011;2976;49.764;9.796;2023-08-08T00:40:35;1.83;;;1.63;;
5900;SDS011;2976;49.764;9.796;2023-08-08T00:43:01;1.87;;;1.30;;
5900;SDS011;2976;49.764;9.796;2023-08-08T00:45:26;1.93;;;1.47;;
5900;SDS011;2976;49.764;9.796;2023-08-08T00:47:53;4.40;;;1.63;;
5900;SDS011;2976;49.764;9.796;2023-08-08T00:50:18;1.93;;;1.50;;
5900;SDS011;2976;49.764;9.796;2023-08-08T00:52:44;3.20;;;1.87;;
5900;SDS011;2976;49.764;9.796;2023-08-08T00:55:10;1.60;;;1.50;;
5900;SDS011;2976;49.764;9.796;2023-08-08T00:57:37;2.30;;;2.10;;
5900;SDS011;2976;49.764;9.796;2023-08-08T01:00:06;1.53;;;1.43;;
5900;SDS011;2976;49.764;9.796;2023-08-08T01:02:34;2.77;;;2.30;;
5900;SDS011;2976;49.764;9.796;2023-08-08T01:05:00;1.70;;;1.60;;
5900;SDS011;2976;49.764;9.796;2023-08-08T01:10:09;2.50;;;1.37;;
5900;SDS011;2976;49.764;9.796;2023-08-08T01:12:46;1.33;;;1.23;;
5900;SDS011;2976;49.764;9.796;2023-08-08T01:15:17;9.10;;;2.00;;
5900;SDS011;2976;49.764;9.796;2023-08-08T01:17:43;1.63;;;1.50;;
5900;SDS011;2976;49.764;9.796;2023-08-08T01:20:10;2.83;;;1.13;;
5900;SDS011;2976;49.764;9.796;2023-08-08T01:22:55;1.47;;;1.40;;
5900;SDS011;2976;49.764;9.796;2023-08-08T01:25:44;3.27;;;1.60;;
5900;SDS011;2976;49.764;9.796;2023-08-08T01:28:10;1.70;;;1.60;;
5900;SDS011;2976;49.764;9.796;2023-08-08T01:30:36;3.00;;;2.10;;
5900;SDS011;2976;49.764;9.796;2023-08-08T01:33:02;7.63;;;1.70;;
5900;SDS011;2976;49.764;9.796;2023-08-08T01:35:29;2.60;;;1.60;;
5900;SDS011;2976;49.764;9.796;2023-08-08T01:37:58;2.20;;;1.60;;
5900;SDS011;2976;49.764;9.796;2023-08-08T01:40:33;9.37;;;2.40;;
5900;SDS011;2976;49.764;9.796;2023-08-08T01:43:01;4.03;;;1.97;;
5900;SDS011;2976;49.764;9.796;2023-08-08T01:45:29;8.47;;;2.00;;
5900;SDS011;2976;49.764;9.796;2023-08-08T01:47:55;1.90;;;1.70;;
5900;SDS011;2976;49.764;9.796;2023-08-08T01:50:20;1.83;;;1.73;;
5900;SDS011;2976;49.764;9.796;2023-08-08T01:52:46;1.80;;;1.57;;
5900;SDS011;2976;49.764;9.796;2023-08-08T01:55:12;1.97;;;1.77;;
5900;SDS011;2976;49.764;9.796;2023-08-08T01:57:38;1.77;;;1.67;;
5900;SDS011;2976;49.764;9.796;2023-08-08T02:00:04;3.03;;;1.70;;
5900;SDS011;2976;49.764;9.796;2023-08-08T02:02:31;1.47;;;1.37;;
5900;SDS011;2976;49.764;9.796;2023-08-08T02:04:57;3.27;;;1.70;;
5900;SDS011;2976;49.764;9.796;2023-08-08T02:07:23;2.07;;;1.97;;
5900;SDS011;2976;49.764;9.796;2023-08-08T02:09:48;1.80;;;1.70;;
5900;SDS011;2976;49.764;9.796;2023-08-08T02:12:15;1.70;;;1.60;;
5900;SDS011;2976;49.764;9.796;2023-08-08T02:14:41;3.00;;;1.70;;
5900;SDS011;2976;49.764;9.796;2023-08-08T02:17:06;1.57;;;1.47;;
5900;SDS011;2976;49.764;9.796;2023-08-08T02:19:32;3.17;;;1.87;;
5900;SDS011;2976;49.764;9.796;2023-08-08T02:21:58;2.63;;;1.50;;
5900;SDS011;2976;49.764;9.796;2023-08-08T02:24:23;2.13;;;1.67;;
5900;SDS011;2976;49.764;9.796;2023-08-08T02:26:49;2.80;;;1.40;;
5900;SDS011;2976;49.764;9.796;2023-08-08T02:29:14;4.50;;;1.60;;
5900;SDS011;2976;49.764;9.796;2023-08-08T02:31:40;2.47;;;1.83;;
5900;SDS011;2976;49.764;9.796;2023-08-08T02:34:06;1.60;;;1.50;;
5900;SDS011;2976;49.764;9.796;2023-08-08T02:36:31;1.70;;;1.60;;
5900;SDS011;2976;49.764;9.796;2023-08-08T02:38:58;2.60;;;2.20;;
5900;SDS011;2976;49.764;9.796;2023-08-08T02:41:23;1.77;;;1.67;;
5900;SDS011;2976;49.764;9.796;2023-08-08T02:43:49;1.83;;;1.73;;
5900;SDS011;2976;49.764;9.796;2023-08-08T02:46:15;2.63;;;1.70;;
5900;SDS011;2976;49.764;9.796;2023-08-08T02:48:40;3.80;;;1.77;;
5900;SDS011;2976;49.764;9.796;2023-08-08T02:51:06;4.83;;;1.63;;
5900;SDS011;2976;49.764;9.796;2023-08-08T02:53:31;1.83;;;1.73;;
5900;SDS011;2976;49.764;9.796;2023-08-08T02:55:57;2.80;;;1.70;;
5900;SDS011;2976;49.764;9.796;2023-08-08T02:58:22;3.87;;;1.90;;
5900;SDS011;2976;49.764;9.796;2023-08-08T03:00:48;4.40;;;1.60;;
5900;SDS011;2976;49.764;9.796;2023-08-08T03:03:14;2.37;;;1.80;;
5900;SDS011;2976;49.764;9.796;2023-08-08T03:05:39;3.33;;;1.87;;
5900;SDS011;2976;49.764;9.796;2023-08-08T03:08:05;4.90;;;1.83;;
5900;SDS011;2976;49.764;9.796;2023-08-08T03:10:31;3.23;;;1.60;;
5900;SDS011;2976;49.764;9.796;2023-08-08T03:12:56;4.10;;;1.97;;
5900;SDS011;2976;49.764;9.796;2023-08-08T03:15:22;2.73;;;1.63;;
5900;SDS011;2976;49.764;9.796;2023-08-08T03:17:48;2.00;;;1.80;;
5900;SDS011;2976;49.764;9.796;2023-08-08T03:20:13;3.07;;;1.83;;
5900;SDS011;2976;49.764;9.796;2023-08-08T03:22:39;2.90;;;1.67;;
5900;SDS011;2976;49.764;9.796;2023-08-08T03:25:05;2.33;;;1.77;;
5900;SDS011;2976;49.764;9.796;2023-08-08T03:27:30;2.10;;;1.53;;
5900;SDS011;2976;49.764;9.796;2023-08-08T03:29:56;3.23;;;2.20;;
5900;SDS011;2976;49.764;9.796;2023-08-08T03:32:22;2.20;;;2.00;;
5900;SDS011;2976;49.764;9.796;2023-08-08T03:34:48;1.70;;;1.60;;
5900;SDS011;2976;49.764;9.796;2023-08-08T03:37:14;4.10;;;1.40;;
5900;SDS011;2976;49.764;9.796;2023-08-08T03:39:40;3.63;;;1.67;;
5900;SDS011;2976;49.764;9.796;2023-08-08T03:42:05;4.17;;;1.77;;
5900;SDS011;2976;49.764;9.796;2023-08-08T03:44:31;4.70;;;1.97;;
5900;SDS011;2976;49.764;9.796;2023-08-08T03:46:57;2.73;;;1.70;;
5900;SDS011;2976;49.764;9.796;2023-08-08T03:49:22;1.80;;;1.70;;
5900;SDS011;2976;49.764;9.796;2023-08-08T03:51:48;3.50;;;1.70;;
5900;SDS011;2976;49.764;9.796;2023-08-08T03:54:14;2.93;;;1.70;;
5900;SDS011;2976;49.764;9.796;2023-08-08T03:56:40;3.97;;;2.20;;
5900;SDS011;2976;49.764;9.796;2023-08-08T03:59:06;3.83;;;2.17;;
5900;SDS011;2976;49.764;9.796;2023-08-08T04:01:31;3.13;;;2.03;;
5900;SDS011;2976;49.764;9.796;2023-08-08T04:03:57;2.00;;;1.30;;
5900;SDS011;2976;49.764;9.796;2023-08-08T04:06:23;1.80;;;1.70;;
5900;SDS011;2976;49.764;9.796;2023-08-08T04:08:49;3.40;;;1.90;;
5900;SDS011;2976;49.764;9.796;2023-08-08T04:11:14;1.93;;;1.83;;
5900;SDS011;2976;49.764;9.796;2023-08-08T04:13:40;2.80;;;2.17;;
5900;SDS011;2976;49.764;9.796;2023-08-08T04:16:05;2.07;;;1.87;;
5900;SDS011;2976;49.764;9.796;2023-08-08T04:18:31;4.00;;;1.47;;
5900;SDS011;2976;49.764;9.796;2023-08-08T04:20:56;2.20;;;1.90;;
5900;SDS011;2976;49.764;9.796;2023-08-08T04:23:22;5.70;;;1.70;;
5900;SDS011;2976;49.764;9.796;2023-08-08T04:25:50;3.10;;;2.40;;
5900;SDS011;2976;49.764;9.796;2023-08-08T04:28:16;2.50;;;1.90;;
5900;SDS011;2976;49.764;9.796;2023-08-08T04:30:42;2.50;;;2.30;;
5900;SDS011;2976;49.764;9.796;2023-08-08T04:33:07;4.70;;;2.33;;
5900;SDS011;2976;49.764;9.796;2023-08-08T04:35:33;3.77;;;1.97;;
5900;SDS011;2976;49.764;9.796;2023-08-08T04:37:58;2.53;;;2.33;;
5900;SDS011;2976;49.764;9.796;2023-08-08T04:40:24;2.60;;;2.10;;
5900;SDS011;2976;49.764;9.796;2023-08-08T04:42:50;3.03;;;1.80;;
5900;SDS011;2976;49.764;9.796;2023-08-08T04:45:16;6.53;;;2.20;;
5900;SDS011;2976;49.764;9.796;2023-08-08T04:47:42;3.90;;;2.30;;
5900;SDS011;2976;49.764;9.796;2023-08-08T04:50:07;3.13;;;2.00;;
5900;SDS011;2976;49.764;9.796;2023-08-08T04:52:34;2.17;;;2.07;;
5900;SDS011;2976;49.764;9.796;2023-08-08T04:55:00;3.53;;;2.23;;
5900;SDS011;2976;49.764;9.796;2023-08-08T04:57:26;4.33;;;2.27;;
5900;SDS011;2976;49.764;9.796;2023-08-08T04:59:51;3.63;;;1.90;;
5900;SDS011;2976;49.764;9.796;2023-08-08T05:02:17;4.30;;;1.70;;
5900;SDS011;2976;49.764;9.796;2023-08-08T05:04:43;1.50;;;1.50;;
5900;SDS011;2976;49.764;9.796;2023-08-08T05:07:08;1.60;;;1.50;;
5900;SDS011;2976;49.764;9.796;2023-08-08T05:09:34;3.10;;;1.77;;
5900;SDS011;2976;49.764;9.796;2023-08-08T05:12:00;1.77;;;1.50;;
5900;SDS011;2976;49.764;9.796;2023-08-08T05:14:26;3.07;;;2.07;;
5900;SDS011;2976;49.764;9.796;2023-08-08T05:16:51;2.60;;;1.80;;
5900;SDS011;2976;49.764;9.796;2023-08-08T05:19:17;4.20;;;1.90;;
5900;SDS011;2976;49.764;9.796;2023-08-08T05:21:42;5.90;;;1.97;;
5900;SDS011;2976;49.764;9.796;2023-08-08T05:24:08;7.97;;;1.87;;
5900;SDS011;2976;49.764;9.796;2023-08-08T05:26:33;2.47;;;1.93;;
5900;SDS011;2976;49.764;9.796;2023-08-08T05:28:59;2.40;;;1.87;;
5900;SDS011;2976;49.764;9.796;2023-08-08T05:31:26;4.60;;;2.77;;
5900;SDS011;2976;49.764;9.796;2023-08-08T05:33:51;4.47;;;2.10;;
5900;SDS011;2976;49.764;9.796;2023-08-08T05:36:17;5.43;;;1.43;;
5900;SDS011;2976;49.764;9.796;2023-08-08T05:38:43;3.97;;;1.20;;
5900;SDS011;2976;49.764;9.796;2023-08-08T05:41:08;2.53;;;1.77;;
5900;SDS011;2976;49.764;9.796;2023-08-08T05:43:34;6.63;;;1.83;;
5900;SDS011;2976;49.764;9.796;2023-08-08T05:46:00;2.30;;;1.57;;
5900;SDS011;2976;49.764;9.796;2023-08-08T05:48:26;6.00;;;1.30;;
5900;SDS011;2976;49.764;9.796;2023-08-08T05:50:51;3.93;;;1.57;;
5900;SDS011;2976;49.764;9.796;2023-08-08T05:53:17;2.67;;;1.50;;
5900;SDS011;2976;49.764;9.796;2023-08-08T05:55:43;2.03;;;1.50;;
5900;SDS011;2976;49.764;9.796;2023-08-08T05:58:08;9.40;;;1.87;;
5900;SDS011;2976;49.764;9.796;2023-08-08T06:00:34;1.20;;;1.10;;
5900;SDS011;2976;49.764;9.796;2023-08-08T06:03:00;2.50;;;1.17;;
5900;SDS011;2976;49.764;9.796;2023-08-08T06:05:26;1.70;;;1.30;;
5900;SDS011;2976;49.764;9.796;2023-08-08T06:07:51;1.00;;;1.00;;
5900;SDS011;2976;49.764;9.796;2023-08-08T06:10:17;3.90;;;1.30;;
5900;SDS011;2976;49.764;9.796;2023-08-08T06:12:42;1.53;;;1.37;;
5900;SDS011;2976;49.764;9.796;2023-08-08T06:15:08;3.10;;;1.63;;
5900;SDS011;2976;49.764;9.796;2023-08-08T06:17:34;1.97;;;1.07;;
5900;SDS011;2976;49.764;9.796;2023-08-08T06:19:59;1.33;;;1.23;;
5900;SDS011;2976;49.764;9.796;2023-08-08T06:22:25;0.90;;;0.90;;
5900;SDS011;2976;49.764;9.796;2023-08-08T06:24:50;4.73;;;1.40;;
5900;SDS011;2976;49.764;9.796;2023-08-08T06:27:16;3.30;;;1.30;;
5900;SDS011;2976;49.764;9.796;2023-08-08T06:29:42;1.13;;;1.13;;
5900;SDS011;2976;49.764;9.796;2023-08-08T06:32:08;1.10;;;1.10;;
5900;SDS011;2976;49.764;9.796;2023-08-08T06:34:33;3.63;;;1.70;;
5900;SDS011;2976;49.764;9.796;2023-08-08T06:36:59;1.07;;;1.00;;
5900;SDS011;2976;49.764;9.796;2023-08-08T06:39:24;2.43;;;0.90;;
5900;SDS011;2976;49.764;9.796;2023-08-08T06:41:50;1.20;;;1.10;;
5900;SDS011;2976;49.764;9.796;2023-08-08T06:44:16;4.43;;;1.07;;
5900;SDS011;2976;49.764;9.796;2023-08-08T06:46:41;1.13;;;0.97;;
5900;SDS011;2976;49.764;9.796;2023-08-08T06:49:07;1.27;;;1.20;;
5900;SDS011;2976;49.764;9.796;2023-08-08T06:51:33;1.27;;;1.17;;
5900;SDS011;2976;49.764;9.796;2023-08-08T06:54:00;1.37;;;1.00;;
5900;SDS011;2976;49.764;9.796;2023-08-08T06:56:25;0.70;;;0.70;;
5900;SDS011;2976;49.764;9.796;2023-08-08T06:58:51;2.60;;;1.10;;
5900;SDS011;2976;49.764;9.796;2023-08-08T07:01:17;5.10;;;1.17;;
5900;SDS011;2976;49.764;9.796;2023-08-08T07:03:44;1.80;;;0.83;;
5900;SDS011;2976;49.764;9.796;2023-08-08T07:06:09;2.27;;;1.10;;
5900;SDS011;2976;49.764;9.796;2023-08-08T07:08:35;4.43;;;1.30;;
5900;SDS011;2976;49.764;9.796;2023-08-08T07:11:02;1.13;;;1.10;;
5900;SDS011;2976;49.764;9.796;2023-08-08T07:13:27;2.03;;;1.00;;
5900;SDS011;2976;49.764;9.796;2023-08-08T07:15:53;1.90;;;0.87;;
5900;SDS011;2976;49.764;9.796;2023-08-08T07:18:18;2.73;;;1.10;;
5900;SDS011;2976;49.764;9.796;2023-08-08T07:20:44;2.77;;;1.07;;
5900;SDS011;2976;49.764;9.796;2023-08-08T07:23:09;2.30;;;1.17;;
5900;SDS011;2976;49.764;9.796;2023-08-08T07:25:35;1.63;;;1.00;;
5900;SDS011;2976;49.764;9.796;2023-08-08T07:28:00;0.90;;;0.90;;
5900;SDS011;2976;49.764;9.796;2023-08-08T07:30:27;1.90;;;0.90;;
5900;SDS011;2976;49.764;9.796;2023-08-08T07:32:53;3.83;;;0.90;;
5900;SDS011;2976;49.764;9.796;2023-08-08T07:35:18;2.20;;;1.17;;
5900;SDS011;2976;49.764;9.796;2023-08-08T07:37:44;2.70;;;0.80;;
5900;SDS011;2976;49.764;9.796;2023-08-08T07:40:19;2.20;;;0.70;;
5900;SDS011;2976;49.764;9.796;2023-08-08T07:42:48;1.67;;;1.00;;
5900;SDS011;2976;49.764;9.796;2023-08-08T07:45:15;10.57;;;1.37;;
5900;SDS011;2976;49.764;9.796;2023-08-08T07:47:40;0.70;;;0.70;;
5900;SDS011;2976;49.764;9.796;2023-08-08T07:50:07;0.93;;;0.83;;
5900;SDS011;2976;49.764;9.796;2023-08-08T07:52:36;2.30;;;0.90;;
5900;SDS011;2976;49.764;9.796;2023-08-08T07:55:02;1.10;;;1.00;;
5900;SDS011;2976;49.764;9.796;2023-08-08T07:57:29;3.80;;;1.13;;
5900;SDS011;2976;49.764;9.796;2023-08-08T08:00:01;2.23;;;1.20;;
5900;SDS011;2976;49.764;9.796;2023-08-08T08:02:33;2.93;;;1.10;;
5900;SDS011;2976;49.764;9.796;2023-08-08T08:04:59;2.93;;;0.97;;
5900;SDS011;2976;49.764;9.796;2023-08-08T08:07:24;4.57;;;1.37;;
5900;SDS011;2976;49.764;9.796;2023-08-08T08:09:50;3.80;;;1.03;;
5900;SDS011;2976;49.764;9.796;2023-08-08T08:12:15;1.20;;;0.90;;
5900;SDS011;2976;49.764;9.796;2023-08-08T08:14:41;1.33;;;0.97;;
5900;SDS011;2976;49.764;9.796;2023-08-08T08:17:07;3.23;;;1.07;;
5900;SDS011;2976;49.764;9.796;2023-08-08T08:19:33;3.73;;;1.50;;
5900;SDS011;2976;49.764;9.796;2023-08-08T08:21:58;3.70;;;1.37;;
5900;SDS011;2976;49.764;9.796;2023-08-08T08:24:24;1.90;;;1.20;;
5900;SDS011;2976;49.764;9.796;2023-08-08T08:26:49;0.83;;;0.80;;
5900;SDS011;2976;49.764;9.796;2023-08-08T08:29:15;1.80;;;1.03;;
5900;SDS011;2976;49.764;9.796;2023-08-08T08:31:40;0.90;;;0.90;;
5900;SDS011;2976;49.764;9.796;2023-08-08T08:34:06;0.80;;;0.80;;
5900;SDS011;2976;49.764;9.796;2023-08-08T08:36:32;2.27;;;1.10;;
5900;SDS011;2976;49.764;9.796;2023-08-08T08:38:57;0.80;;;0.80;;
5900;SDS011;2976;49.764;9.796;2023-08-08T08:41:25;1.87;;;1.00;;
5900;SDS011;2976;49.764;9.796;2023-08-08T08:43:52;1.00;;;0.90;;
5900;SDS011;2976;49.764;9.796;2023-08-08T08:46:20;2.30;;;0.87;;
5900;SDS011;2976;49.764;9.796;2023-08-08T08:48:49;3.47;;;0.70;;
5900;SDS011;2976;49.764;9.796;2023-08-08T08:51:17;1.83;;;0.97;;
5900;SDS011;2976;49.764;9.796;2023-08-08T08:53:43;0.70;;;0.70;;
5900;SDS011;2976;49.764;9.796;2023-08-08T08:56:11;1.77;;;1.20;;
5900;SDS011;2976;49.764;9.796;2023-08-08T08:58:38;1.20;;;0.80;;
5900;SDS011;2976;49.764;9.796;2023-08-08T09:01:04;0.97;;;0.63;;
5900;SDS011;2976;49.764;9.796;2023-08-08T09:03:31;0.80;;;0.80;;
5900;SDS011;2976;49.764;9.796;2023-08-08T09:05:56;2.83;;;1.10;;
5900;SDS011;2976;49.764;9.796;2023-08-08T09:08:24;1.60;;;0.80;;
5900;SDS011;2976;49.764;9.796;2023-08-08T09:10:49;4.23;;;1.07;;
5900;SDS011;2976;49.764;9.796;2023-08-08T09:13:15;1.90;;;1.07;;
5900;SDS011;2976;49.764;9.796;2023-08-08T09:15:41;3.13;;;0.90;;
5900;SDS011;2976;49.764;9.796;2023-08-08T09:18:07;2.20;;;0.70;;
5900;SDS011;2976;49.764;9.796;2023-08-08T09:20:33;1.07;;;0.70;;
5900;SDS011;2976;49.764;9.796;2023-08-08T09:22:58;1.90;;;0.93;;
5900;SDS011;2976;49.764;9.796;2023-08-08T09:25:24;3.13;;;1.07;;
5900;SDS011;2976;49.764;9.796;2023-08-08T09:27:51;2.47;;;0.80;;
5900;SDS011;2976;49.764;9.796;2023-08-08T09:30:20;1.23;;;0.80;;
5900;SDS011;2976;49.764;9.796;2023-08-08T09:32:46;0.53;;;0.53;;
5900;SDS011;2976;49.764;9.796;2023-08-08T09:35:11;0.97;;;0.70;;
5900;SDS011;2976;49.764;9.796;2023-08-08T09:37:37;1.13;;;0.93;;
5900;SDS011;2976;49.764;9.796;2023-08-08T09:40:04;2.90;;;0.80;;
5900;SDS011;2976;49.764;9.796;2023-08-08T09:42:30;1.60;;;1.07;;
5900;SDS011;2976;49.764;9.796;2023-08-08T09:44:56;1.00;;;0.90;;
5900;SDS011;2976;49.764;9.796;2023-08-08T09:47:22;0.70;;;0.67;;
5900;SDS011;2976;49.764;9.796;2023-08-08T09:49:49;0.83;;;0.70;;
5900;SDS011;2976;49.764;9.796;2023-08-08T09:52:15;2.40;;;1.00;;
5900;SDS011;2976;49.764;9.796;2023-08-08T09:54:42;2.93;;;0.70;;
5900;SDS011;2976;49.764;9.796;2023-08-08T09:57:08;2.03;;;1.00;;
5900;SDS011;2976;49.764;9.796;2023-08-08T09:59:34;1.20;;;1.10;;
5900;SDS011;2976;49.764;9.796;2023-08-08T10:02:00;1.40;;;0.67;;
5900;SDS011;2976;49.764;9.796;2023-08-08T10:04:26;4.27;;;0.77;;
5900;SDS011;2976;49.764;9.796;2023-08-08T10:06:52;1.43;;;1.20;;
5900;SDS011;2976;49.764;9.796;2023-08-08T10:09:18;1.07;;;0.87;;
5900;SDS011;2976;49.764;9.796;2023-08-08T10:11:44;1.27;;;0.97;;
5900;SDS011;2976;49.764;9.796;2023-08-08T10:14:10;2.70;;;0.93;;
5900;SDS011;2976;49.764;9.796;2023-08-08T10:16:39;1.30;;;0.97;;
5900;SDS011;2976;49.764;9.796;2023-08-08T10:19:08;0.87;;;0.77;;
5900;SDS011;2976;49.764;9.796;2023-08-08T10:21:35;1.57;;;0.63;;
5900;SDS011;2976;49.764;9.796;2023-08-08T10:24:02;2.60;;;1.60;;
5900;SDS011;2976;49.764;9.796;2023-08-08T10:26:32;1.33;;;0.80;;
5900;SDS011;2976;49.764;9.796;2023-08-08T10:28:58;1.83;;;1.23;;
5900;SDS011;2976;49.764;9.796;2023-08-08T10:31:26;1.93;;;1.00;;
5900;SDS011;2976;49.764;9.796;2023-08-08T10:34:02;1.23;;;1.23;;
5900;SDS011;2976;49.764;9.796;2023-08-08T10:36:48;1.47;;;1.20;;
5900;SDS011;2976;49.764;9.796;2023-08-08T10:39:15;0.97;;;0.97;;
5900;SDS011;2976;49.764;9.796;2023-08-08T10:41:48;1.10;;;0.90;;
5900;SDS011;2976;49.764;9.796;2023-08-08T10:44:22;2.13;;;0.90;;
5900;SDS011;2976;49.764;9.796;2023-08-08T10:46:48;1.23;;;0.60;;
5900;SDS011;2976;49.764;9.796;2023-08-08T10:49:16;1.30;;;1.20;;
5900;SDS011;2976;49.764;9.796;2023-08-08T10:51:43;4.10;;;1.23;;
5900;SDS011;2976;49.764;9.796;2023-08-08T10:54:22;1.43;;;1.10;;
5900;SDS011;2976;49.764;9.796;2023-08-08T10:56:53;2.43;;;1.17;;
5900;SDS011;2976;49.764;9.796;2023-08-08T10:59:24;1.13;;;1.03;;
5900;SDS011;2976;49.764;9.796;2023-08-08T11:01:52;0.90;;;0.90;;
5900;SDS011;2976;49.764;9.796;2023-08-08T11:04:21;1.40;;;1.07;;
5900;SDS011;2976;49.764;9.796;2023-08-08T11:06:48;3.13;;;1.00;;
5900;SDS011;2976;49.764;9.796;2023-08-08T11:09:15;0.97;;;0.97;;
5900;SDS011;2976;49.764;9.796;2023-08-08T11:11:41;1.00;;;0.90;;
5900;SDS011;2976;49.764;9.796;2023-08-08T11:14:11;3.03;;;1.03;;
5900;SDS011;2976;49.764;9.796;2023-08-08T11:16:39;2.73;;;1.00;;
5900;SDS011;2976;49.764;9.796;2023-08-08T11:19:05;1.10;;;0.80;;
5900;SDS011;2976;49.764;9.796;2023-08-08T11:21:42;3.20;;;1.67;;
5900;SDS011;2976;49.764;9.796;2023-08-08T11:24:09;1.80;;;1.07;;
5900;SDS011;2976;49.764;9.796;2023-08-08T11:26:37;4.20;;;1.17;;
5900;SDS011;2976;49.764;9.796;2023-08-08T11:29:04;4.63;;;1.60;;
5900;SDS011;2976;49.764;9.796;2023-08-08T11:31:36;1.13;;;1.13;;
5900;SDS011;2976;49.764;9.796;2023-08-08T11:34:02;2.60;;;1.50;;
5900;SDS011;2976;49.764;9.796;2023-08-08T11:36:30;1.17;;;1.07;;
5900;SDS011;2976;49.764;9.796;2023-08-08T11:38:57;0.90;;;0.87;;
5900;SDS011;2976;49.764;9.796;2023-08-08T11:41:28;1.93;;;1.20;;
5900;SDS011;2976;49.764;9.796;2023-08-08T11:43:54;1.60;;;1.03;;
5900;SDS011;2976;49.764;9.796;2023-08-08T11:46:23;2.40;;;1.60;;
5900;SDS011;2976;49.764;9.796;2023-08-08T11:48:50;1.87;;;1.20;;
5900;SDS011;2976;49.764;9.796;2023-08-08T11:51:16;1.53;;;0.90;;
5900;SDS011;2976;49.764;9.796;2023-08-08T11:53:48;1.60;;;0.90;;
5900;SDS011;2976;49.764;9.796;2023-08-08T11:56:16;2.40;;;1.13;;
5900;SDS011;2976;49.764;9.796;2023-08-08T11:58:42;0.97;;;0.97;;
5900;SDS011;2976;49.764;9.796;2023-08-08T12:01:08;2.80;;;1.17;;
5900;SDS011;2976;49.764;9.796;2023-08-08T12:03:35;1.67;;;1.20;;
5900;SDS011;2976;49.764;9.796;2023-08-08T12:06:10;5.80;;;1.33;;
5900;SDS011;2976;49.764;9.796;2023-08-08T12:08:40;1.03;;;0.97;;
5900;SDS011;2976;49.764;9.796;2023-08-08T12:11:10;1.47;;;1.13;;
5900;SDS011;2976;49.764;9.796;2023-08-08T12:13:37;1.37;;;1.00;;
5900;SDS011;2976;49.764;9.796;2023-08-08T12:16:04;2.10;;;1.27;;
5900;SDS011;2976;49.764;9.796;2023-08-08T12:18:34;2.60;;;1.00;;
5900;SDS011;2976;49.764;9.796;2023-08-08T12:21:00;2.67;;;0.80;;
5900;SDS011;2976;49.764;9.796;2023-08-08T12:23:26;2.17;;;0.97;;
5900;SDS011;2976;49.764;9.796;2023-08-08T12:25:52;0.90;;;0.90;;
5900;SDS011;2976;49.764;9.796;2023-08-08T12:28:18;1.73;;;1.17;;
5900;SDS011;2976;49.764;9.796;2023-08-08T12:30:44;1.40;;;1.30;;
5900;SDS011;2976;49.764;9.796;2023-08-08T12:33:10;2.00;;;1.73;;
5900;SDS011;2976;49.764;9.796;2023-08-08T12:35:35;2.67;;;0.73;;
5900;SDS011;2976;49.764;9.796;2023-08-08T12:38:01;1.03;;;0.90;;
5900;SDS011;2976;49.764;9.796;2023-08-08T12:40:28;2.50;;;1.70;;
5900;SDS011;2976;49.764;9.796;2023-08-08T12:42:54;2.83;;;1.40;;
5900;SDS011;2976;49.764;9.796;2023-08-08T12:45:19;1.90;;;1.00;;
5900;SDS011;2976;49.764;9.796;2023-08-08T12:47:45;6.53;;;1.10;;
5900;SDS011;2976;49.764;9.796;2023-08-08T12:50:10;1.53;;;1.20;;
5900;SDS011;2976;49.764;9.796;2023-08-08T12:52:36;1.47;;;1.30;;
5900;SDS011;2976;49.764;9.796;2023-08-08T12:55:03;2.77;;;1.37;;
5900;SDS011;2976;49.764;9.796;2023-08-08T12:57:29;2.47;;;1.50;;
5900;SDS011;2976;49.764;9.796;2023-08-08T12:59:54;4.50;;;1.83;;
5900;SDS011;2976;49.764;9.796;2023-08-08T13:02:20;2.30;;;1.00;;
5900;SDS011;2976;49.764;9.796;2023-08-08T13:04:46;2.23;;;1.23;;
5900;SDS011;2976;49.764;9.796;2023-08-08T13:07:11;1.63;;;1.00;;
5900;SDS011;2976;49.764;9.796;2023-08-08T13:09:37;3.13;;;1.17;;
5900;SDS011;2976;49.764;9.796;2023-08-08T13:12:04;2.43;;;1.20;;
5900;SDS011;2976;49.764;9.796;2023-08-08T13:14:30;1.70;;;1.00;;
5900;SDS011;2976;49.764;9.796;2023-08-08T13:16:55;2.67;;;1.50;;
5900;SDS011;2976;49.764;9.796;2023-08-08T13:19:21;2.50;;;1.40;;
5900;SDS011;2976;49.764;9.796;2023-08-08T13:21:50;2.23;;;1.23;;
5900;SDS011;2976;49.764;9.796;2023-08-08T13:24:19;1.33;;;1.23;;
5900;SDS011;2976;49.764;9.796;2023-08-08T13:26:47;3.80;;;1.20;;
5900;SDS011;2976;49.764;9.796;2023-08-08T13:29:14;1.77;;;1.67;;
5900;SDS011;2976;49.764;9.796;2023-08-08T13:31:39;2.40;;;1.27;;
5900;SDS011;2976;49.764;9.796;2023-08-08T13:34:05;3.70;;;0.97;;
5900;SDS011;2976;49.764;9.796;2023-08-08T13:36:30;1.27;;;1.03;;
5900;SDS011;2976;49.764;9.796;2023-08-08T13:38:56;2.87;;;1.20;;
5900;SDS011;2976;49.764;9.796;2023-08-08T13:41:22;2.67;;;1.30;;
5900;SDS011;2976;49.764;9.796;2023-08-08T13:43:47;2.73;;;1.20;;
5900;SDS011;2976;49.764;9.796;2023-08-08T13:46:13;3.67;;;1.70;;
5900;SDS011;2976;49.764;9.796;2023-08-08T13:48:39;3.13;;;1.30;;
5900;SDS011;2976;49.764;9.796;2023-08-08T13:51:05;2.20;;;1.07;;
5900;SDS011;2976;49.764;9.796;2023-08-08T13:53:30;2.33;;;1.10;;
5900;SDS011;2976;49.764;9.796;2023-08-08T13:55:56;1.43;;;0.93;;
5900;SDS011;2976;49.764;9.796;2023-08-08T13:58:21;1.30;;;1.20;;
5900;SDS011;2976;49.764;9.796;2023-08-08T14:00:47;6.57;;;1.10;;
5900;SDS011;2976;49.764;9.796;2023-08-08T14:03:14;2.70;;;1.30;;
5900;SDS011;2976;49.764;9.796;2023-08-08T14:05:39;1.63;;;0.97;;
5900;SDS011;2976;49.764;9.796;2023-08-08T14:08:05;4.43;;;1.60;;
5900;SDS011;2976;49.764;9.796;2023-08-08T14:10:31;2.33;;;1.70;;
5900;SDS011;2976;49.764;9.796;2023-08-08T14:12:57;2.10;;;1.40;;
5900;SDS011;2976;49.764;9.796;2023-08-08T14:15:22;2.50;;;1.17;;
5900;SDS011;2976;49.764;9.796;2023-08-08T14:17:48;2.43;;;1.53;;
5900;SDS011;2976;49.764;9.796;2023-08-08T14:20:14;1.50;;;1.30;;
5900;SDS011;2976;49.764;9.796;2023-08-08T14:22:39;1.20;;;1.20;;
5900;SDS011;2976;49.764;9.796;2023-08-08T14:25:08;3.07;;;1.13;;
5900;SDS011;2976;49.764;9.796;2023-08-08T14:27:34;3.03;;;1.23;;
5900;SDS011;2976;49.764;9.796;2023-08-08T14:30:01;1.13;;;1.00;;
5900;SDS011;2976;49.764;9.796;2023-08-08T14:32:28;2.20;;;0.90;;
5900;SDS011;2976;49.764;9.796;2023-08-08T14:34:54;4.17;;;1.00;;
5900;SDS011;2976;49.764;9.796;2023-08-08T14:37:20;1.30;;;1.20;;
5900;SDS011;2976;49.764;9.796;2023-08-08T14:39:46;2.03;;;1.53;;
5900;SDS011;2976;49.764;9.796;2023-08-08T14:42:12;3.53;;;1.37;;
5900;SDS011;2976;49.764;9.796;2023-08-08T14:44:37;1.33;;;1.23;;
5900;SDS011;2976;49.764;9.796;2023-08-08T14:47:03;5.03;;;1.10;;
5900;SDS011;2976;49.764;9.796;2023-08-08T14:49:29;1.73;;;0.87;;
5900;SDS011;2976;49.764;9.796;2023-08-08T14:51:55;2.13;;;1.50;;
5900;SDS011;2976;49.764;9.796;2023-08-08T14:54:20;2.63;;;1.13;;
5900;SDS011;2976;49.764;9.796;2023-08-08T14:56:46;5.13;;;1.20;;
5900;SDS011;2976;49.764;9.796;2023-08-08T14:59:11;2.30;;;1.40;;
5900;SDS011;2976;49.764;9.796;2023-08-08T15:01:37;2.07;;;0.83;;
5900;SDS011;2976;49.764;9.796;2023-08-08T15:04:03;4.23;;;1.30;;
5900;SDS011;2976;49.764;9.796;2023-08-08T15:06:29;1.37;;;1.27;;
5900;SDS011;2976;49.764;9.796;2023-08-08T15:08:54;1.50;;;1.20;;
5900;SDS011;2976;49.764;9.796;2023-08-08T15:11:20;2.57;;;1.00;;
5900;SDS011;2976;49.764;9.796;2023-08-08T15:13:45;2.20;;;1.20;;